Terminal Aerodrome Forecast
Issued by NWS

Home | Current Version | Previous Version | Text Only | Print | Product List | Glossary On
Versions: 1 2 3 4 5 6 7 8 9 10 11 12 13 14 15 16 17 18 19 20 21 22 23 24 25 26 27 28 29 30 31 32 33 34
178
FTUS44 KBMX 161740
TAFTCL
TAF
KTCL 161740Z 1618/1718 23006KT P6SM BKN035
      TEMPO 1618/1619 BKN025
     FM162000 23006KT P6SM VCTS SCT025 BKN040CB
      TEMPO 1620/1623 5SM -TSRA BKN025CB
     FM170000 21005KT P6SM BKN050 OVC250
     FM170900 20001KT 3SM BR OVC006
     FM171500 20005KT P6SM SCT015 SCT030=

USA.gov is the U.S. government's official web portal to all federal, state and local government web resources and services.